createdAt,value
2022-10-24T06:15:37.187Z,24.50
2022-10-24T06:18:04.791Z,24.80
2022-10-24T06:20:31.890Z,28.20
2022-10-24T06:22:58.946Z,27.40
2022-10-24T06:25:26.129Z,25.20
2022-10-24T06:27:53.166Z,25.80
2022-10-24T06:30:21.246Z,26.70
2022-10-24T06:32:48.350Z,23.50
2022-10-24T06:35:16.055Z,24.60
2022-10-24T06:37:47.192Z,25.30
2022-10-24T06:40:15.673Z,25.40
2022-10-24T06:42:42.742Z,25.20
2022-10-24T06:45:12.545Z,29.50
2022-10-24T06:47:39.618Z,24.30
2022-10-24T06:50:08.034Z,25.00
2022-10-24T06:52:35.240Z,25.60
2022-10-24T06:55:02.718Z,24.30
2022-10-24T06:57:29.937Z,28.00
2022-10-24T06:59:57.656Z,28.10
2022-10-24T07:02:25.010Z,27.40
2022-10-24T07:04:52.726Z,27.00
2022-10-24T07:07:21.805Z,27.80
2022-10-24T07:09:55.366Z,23.10
2022-10-24T07:12:22.720Z,26.00
2022-10-24T07:14:49.797Z,27.30
2022-10-24T07:17:17.343Z,25.10
2022-10-24T07:19:44.732Z,25.20
2022-10-24T07:22:12.292Z,25.20
2022-10-24T07:24:39.490Z,22.80
2022-10-24T07:27:06.819Z,28.50
2022-10-24T07:29:33.832Z,26.80
2022-10-24T07:32:02.158Z,27.50
2022-10-24T07:34:29.240Z,25.70
2022-10-24T07:36:56.339Z,26.80
2022-10-24T07:39:23.745Z,25.40
2022-10-24T07:41:50.813Z,26.50
2022-10-24T07:44:17.822Z,28.70
2022-10-24T07:46:45.029Z,27.70
2022-10-24T07:49:12.396Z,26.70
2022-10-24T07:51:39.501Z,24.60
2022-10-24T07:54:06.748Z,29.60
2022-10-24T07:56:33.943Z,26.20
2022-10-24T07:59:09.097Z,25.60
2022-10-24T08:01:41.138Z,24.80
2022-10-24T08:04:08.318Z,26.60
2022-10-24T08:06:35.959Z,25.10
2022-10-24T08:09:03.542Z,28.10
2022-10-24T08:11:32.818Z,25.30
2022-10-24T08:14:00.123Z,24.50
2022-10-24T08:16:27.711Z,24.50
2022-10-24T08:18:57.811Z,23.00
2022-10-24T08:21:26.054Z,24.10
2022-10-24T08:23:55.417Z,24.80
2022-10-24T08:26:25.134Z,28.10
2022-10-24T08:28:53.461Z,26.00
2022-10-24T08:31:21.993Z,24.90
2022-10-24T08:33:49.793Z,25.10
2022-10-24T08:36:21.397Z,25.20
2022-10-24T08:38:48.288Z,23.40
2022-10-24T08:41:21.498Z,23.90
2022-10-24T08:43:48.756Z,23.60
2022-10-24T08:46:33.853Z,25.30
2022-10-24T08:49:06.572Z,24.60
2022-10-24T08:51:41.615Z,22.90
2022-10-24T08:54:12.515Z,26.20
2022-10-24T08:56:40.227Z,26.40
2022-10-24T08:59:10.802Z,24.50
2022-10-24T09:01:44.332Z,26.60
2022-10-24T09:04:15.244Z,23.30
2022-10-24T09:06:43.077Z,27.60
2022-10-24T09:09:19.220Z,28.50
2022-10-24T09:11:51.417Z,24.50
2022-10-24T09:14:21.012Z,26.70
2022-10-24T09:16:51.208Z,23.20
2022-10-24T09:19:20.826Z,21.10
2022-10-24T09:21:49.179Z,26.20
2022-10-24T09:24:29.999Z,26.40
2022-10-24T09:26:57.344Z,22.80
2022-10-24T09:29:24.984Z,22.70
2022-10-24T09:31:52.151Z,21.10
2022-10-24T09:34:20.027Z,23.50
2022-10-24T09:36:47.680Z,24.30
2022-10-24T09:39:32.578Z,23.60
2022-10-24T09:42:01.304Z,20.10
2022-10-24T09:44:41.181Z,23.00
2022-10-24T09:47:23.388Z,19.40
2022-10-24T09:49:50.581Z,20.70
2022-10-24T09:52:23.796Z,20.20
2022-10-24T09:55:16.725Z,20.60
2022-10-24T09:57:44.255Z,21.90
2022-10-24T10:00:24.766Z,24.40
2022-10-24T10:03:03.222Z,21.10
2022-10-24T10:05:32.009Z,19.40
2022-10-24T10:08:01.116Z,26.20
2022-10-24T10:10:37.758Z,20.00
2022-10-24T10:13:18.962Z,21.00
2022-10-24T10:15:51.403Z,20.60
2022-10-24T10:18:33.487Z,21.50
2022-10-24T10:21:10.325Z,25.80
2022-10-24T10:23:39.587Z,25.20
2022-10-24T10:26:16.293Z,18.90
2022-10-24T10:28:52.928Z,27.50
2022-10-24T10:31:23.847Z,19.60
2022-10-24T10:34:05.012Z,19.30
2022-10-24T10:36:37.061Z,25.60
2022-10-24T10:39:22.118Z,24.50
2022-10-24T10:44:43.861Z,20.80
2022-10-24T10:47:35.657Z,20.60
2022-10-24T10:50:03.312Z,22.50
2022-10-24T10:52:40.601Z,23.00
2022-10-24T10:55:22.640Z,18.60
2022-10-24T10:57:57.492Z,20.60
2022-10-24T11:00:30.700Z,19.80
2022-10-24T11:03:16.357Z,21.40
2022-10-24T11:05:58.631Z,18.90
2022-10-24T11:09:00.551Z,17.30
2022-10-24T11:11:32.689Z,22.20
2022-10-24T11:14:05.855Z,23.60
2022-10-24T11:16:34.411Z,21.80
2022-10-24T11:19:06.429Z,21.00
2022-10-24T11:21:36.658Z,20.00
2022-10-24T11:24:13.545Z,18.90
2022-10-24T11:26:44.657Z,18.90
2022-10-24T11:29:19.466Z,16.80
2022-10-24T11:31:50.469Z,16.20
2022-10-24T11:34:22.948Z,15.20
2022-10-24T11:36:56.380Z,18.30
2022-10-24T11:39:28.957Z,17.90
2022-10-24T11:42:02.949Z,16.60
2022-10-24T11:44:39.834Z,16.30
2022-10-24T11:47:32.760Z,13.10
2022-10-24T11:50:06.065Z,15.00
2022-10-24T11:52:38.495Z,15.20
2022-10-24T11:55:13.294Z,16.40
2022-10-24T11:57:44.812Z,18.60
2022-10-24T12:00:22.427Z,13.20
2022-10-24T12:03:38.348Z,15.30
2022-10-24T12:06:24.305Z,13.20
2022-10-24T12:09:08.967Z,13.80
2022-10-24T12:11:57.603Z,12.90
2022-10-24T12:14:44.056Z,14.40
2022-10-24T12:17:31.784Z,17.10
2022-10-24T12:20:02.916Z,13.20
2022-10-24T12:22:36.576Z,13.10
2022-10-24T12:25:18.530Z,16.10
2022-10-24T12:27:45.923Z,13.10
2022-10-24T12:30:25.020Z,13.70
2022-10-24T12:32:54.875Z,10.40
2022-10-24T12:35:52.999Z,11.00
2022-10-24T12:39:09.595Z,12.20
2022-10-24T12:41:42.670Z,14.70
2022-10-24T12:44:54.457Z,14.10
2022-10-24T12:47:32.036Z,12.00
2022-10-24T12:50:00.370Z,10.90
2022-10-24T12:53:04.991Z,8.80
2022-10-24T12:55:53.978Z,11.00
2022-10-24T12:58:29.665Z,15.30
2022-10-24T13:01:01.735Z,12.40
2022-10-24T13:03:54.177Z,11.80
2022-10-24T13:06:28.010Z,9.90
2022-10-24T13:09:24.946Z,13.80
2022-10-24T13:12:07.980Z,12.40
2022-10-24T13:15:16.603Z,19.00
2022-10-24T13:17:50.326Z,12.10
2022-10-24T13:20:23.693Z,13.80
2022-10-24T13:22:52.492Z,11.50
2022-10-24T13:25:33.853Z,13.30
2022-10-24T13:28:34.518Z,10.80
2022-10-24T13:31:32.280Z,9.10
2022-10-24T13:34:15.791Z,10.40
2022-10-24T13:36:44.446Z,11.30
2022-10-24T13:39:17.868Z,11.50
2022-10-24T13:41:49.555Z,10.50
2022-10-24T13:44:26.473Z,11.30
2022-10-24T13:46:59.925Z,15.30
2022-10-24T13:49:32.509Z,15.90
2022-10-24T13:52:04.266Z,9.30
2022-10-24T13:54:35.927Z,11.60
2022-10-24T13:57:03.020Z,8.70
2022-10-24T13:59:35.466Z,15.60
2022-10-24T14:02:07.062Z,10.50
2022-10-24T14:04:36.086Z,12.20
2022-10-24T14:07:10.053Z,11.40
2022-10-24T14:09:44.082Z,9.00
2022-10-24T14:12:21.460Z,11.00
2022-10-24T14:14:51.988Z,11.60
2022-10-24T14:17:26.231Z,10.70
2022-10-24T14:19:57.241Z,9.00
2022-10-24T14:22:28.014Z,13.50
2022-10-24T14:24:55.842Z,14.50
2022-10-24T14:27:23.612Z,12.80
2022-10-24T14:30:00.895Z,11.30
2022-10-24T14:32:29.786Z,10.60
2022-10-24T14:37:32.615Z,10.80
2022-10-24T14:40:15.693Z,10.90
2022-10-24T14:42:43.934Z,14.50
2022-10-24T14:45:25.446Z,11.70
2022-10-24T14:47:56.522Z,11.80
2022-10-24T14:50:45.380Z,13.80
2022-10-24T14:53:25.236Z,13.30
2022-10-24T14:55:55.756Z,14.60
2022-10-24T14:58:29.793Z,14.10
2022-10-24T15:00:58.858Z,20.90
2022-10-24T15:03:27.806Z,16.40
2022-10-24T15:06:00.608Z,19.60
2022-10-24T15:08:38.684Z,21.00
2022-10-24T15:11:22.148Z,19.20
2022-10-24T15:14:05.548Z,21.30
2022-10-24T15:16:39.073Z,16.50
2022-10-24T15:19:11.410Z,16.10
2022-10-24T15:21:42.080Z,15.40
2022-10-24T15:24:20.607Z,21.20
2022-10-24T15:26:47.755Z,17.60
2022-10-24T15:29:23.212Z,19.70
2022-10-24T15:31:51.906Z,16.40
2022-10-24T15:34:20.972Z,22.90
2022-10-24T15:36:50.268Z,13.80
2022-10-24T15:39:19.454Z,20.20
2022-10-24T15:41:46.399Z,21.80
2022-10-24T15:44:19.230Z,18.60
2022-10-24T15:46:46.584Z,17.00
2022-10-24T15:49:14.201Z,18.80
2022-10-24T15:51:46.073Z,27.50
2022-10-24T15:54:17.632Z,25.20
2022-10-24T15:56:44.978Z,21.20
2022-10-24T15:59:12.133Z,15.30
2022-10-24T16:01:42.850Z,23.20
2022-10-24T16:04:12.462Z,22.30
2022-10-24T16:06:39.703Z,16.00
2022-10-24T16:09:07.848Z,17.10
2022-10-24T16:11:35.003Z,19.60
2022-10-24T16:14:02.328Z,19.50
2022-10-24T16:16:29.399Z,17.70
2022-10-24T16:18:56.464Z,21.60
2022-10-24T16:21:24.043Z,16.60
2022-10-24T16:26:23.158Z,18.50
2022-10-24T16:28:50.243Z,21.80
2022-10-24T16:31:19.828Z,17.50
2022-10-24T16:33:46.984Z,23.50
2022-10-24T16:36:14.177Z,16.20
2022-10-24T16:38:41.241Z,18.30
2022-10-24T16:41:08.560Z,22.70
2022-10-24T16:43:38.861Z,22.90
2022-10-24T16:46:15.528Z,18.80
2022-10-24T16:48:42.883Z,15.00
2022-10-24T16:51:13.771Z,19.00
2022-10-24T16:53:40.813Z,17.50
2022-10-24T16:56:10.051Z,15.20
2022-10-24T16:58:37.561Z,18.90
2022-10-24T17:01:09.548Z,17.90
2022-10-24T17:03:37.354Z,23.70
2022-10-24T17:06:04.595Z,20.20
2022-10-24T17:08:32.272Z,20.60
2022-10-24T17:11:01.003Z,21.20
2022-10-24T17:13:29.114Z,26.70
2022-10-24T17:15:57.044Z,27.70
2022-10-24T17:18:25.648Z,23.90
2022-10-24T17:20:58.399Z,30.40
2022-10-24T17:23:26.779Z,27.50
2022-10-24T17:25:54.651Z,23.80
2022-10-24T17:28:22.150Z,28.60
2022-10-24T17:30:49.713Z,21.40
2022-10-24T17:33:17.295Z,22.70
2022-10-24T17:35:47.783Z,22.10
2022-10-24T17:38:42.084Z,24.10
2022-10-24T17:41:19.049Z,22.80
2022-10-24T17:46:15.991Z,17.50
2022-10-24T17:48:43.305Z,24.00
2022-10-24T17:51:15.044Z,26.60
2022-10-24T17:53:42.345Z,23.60
2022-10-24T17:58:44.301Z,23.40
2022-10-24T18:01:12.454Z,20.80
2022-10-24T18:03:40.011Z,21.90
2022-10-24T18:06:12.433Z,22.80
2022-10-24T18:08:39.554Z,23.10
2022-10-24T18:11:09.086Z,25.10
2022-10-24T18:13:38.809Z,24.30
2022-10-24T18:16:10.814Z,19.50
2022-10-24T18:18:40.001Z,17.80
2022-10-24T18:21:12.136Z,20.00
2022-10-24T18:23:39.549Z,23.90
2022-10-24T18:26:10.838Z,20.30
2022-10-24T18:28:41.103Z,27.60
2022-10-24T18:31:11.532Z,24.40
2022-10-24T18:33:38.901Z,24.00
2022-10-24T18:36:11.280Z,23.00
2022-10-24T18:38:39.978Z,20.50
2022-10-24T18:41:22.045Z,19.50
2022-10-24T18:43:50.033Z,22.00
2022-10-24T18:46:17.771Z,23.50
2022-10-24T18:48:45.986Z,27.50
2022-10-24T18:51:26.421Z,25.70
2022-10-24T18:53:54.849Z,22.40
2022-10-24T18:56:22.615Z,27.00
2022-10-24T18:58:54.849Z,29.30
2022-10-24T19:01:32.990Z,24.40
2022-10-24T19:04:02.031Z,24.40
2022-10-24T19:06:30.909Z,23.70
2022-10-24T19:08:58.340Z,22.90
2022-10-24T19:11:25.792Z,24.90
2022-10-24T19:13:53.361Z,20.70
2022-10-24T19:16:28.560Z,28.20
2022-10-24T19:19:02.951Z,27.60
2022-10-24T19:21:30.799Z,22.00
2022-10-24T19:23:57.992Z,28.20
2022-10-24T19:26:25.083Z,25.10
2022-10-24T19:28:52.120Z,22.10
2022-10-24T19:31:19.256Z,25.60
2022-10-24T19:33:46.327Z,20.60
2022-10-24T19:36:19.081Z,21.80
2022-10-24T19:38:46.767Z,22.70
2022-10-24T19:41:13.940Z,22.80
2022-10-24T19:43:41.226Z,25.80
2022-10-24T19:46:25.436Z,18.50
2022-10-24T19:48:53.284Z,23.90
2022-10-24T19:51:21.934Z,23.30
2022-10-24T19:53:49.757Z,22.50
2022-10-24T19:56:20.155Z,22.70
2022-10-24T19:58:50.205Z,25.10
2022-10-24T20:01:19.246Z,19.00
2022-10-24T20:03:48.253Z,24.70
2022-10-24T20:06:16.204Z,25.60
2022-10-24T20:08:50.416Z,21.60
2022-10-24T20:11:20.539Z,22.90
2022-10-24T20:13:48.637Z,21.60
2022-10-24T20:16:15.750Z,23.20
2022-10-24T20:18:44.218Z,19.20
2022-10-24T20:21:12.656Z,21.50
2022-10-24T20:23:41.837Z,20.50
2022-10-24T20:26:10.890Z,19.60
2022-10-24T20:28:40.102Z,18.60
2022-10-24T20:31:08.581Z,21.50
2022-10-24T20:33:35.930Z,20.30
2022-10-24T20:36:03.597Z,20.90
2022-10-24T20:38:33.777Z,21.30
2022-10-24T20:41:04.627Z,18.50
2022-10-24T20:43:31.926Z,20.40
2022-10-24T20:45:59.191Z,23.10
2022-10-24T20:48:26.485Z,24.60
2022-10-24T20:50:53.547Z,20.10
2022-10-24T20:53:20.844Z,20.10
2022-10-24T20:55:48.007Z,20.70
2022-10-24T20:58:15.618Z,20.60
2022-10-24T21:00:43.175Z,19.10
2022-10-24T21:03:12.293Z,17.90
2022-10-24T21:05:39.518Z,16.00
2022-10-24T21:08:07.286Z,18.90
2022-10-24T21:10:34.890Z,21.60
2022-10-24T21:13:02.035Z,17.20
2022-10-24T21:15:29.092Z,14.70
2022-10-24T21:17:56.074Z,15.10
2022-10-24T21:20:23.168Z,17.50
2022-10-24T21:22:50.610Z,16.40
2022-10-24T21:25:17.965Z,14.40
2022-10-24T21:27:45.202Z,17.00
2022-10-24T21:30:14.878Z,11.60
2022-10-24T21:32:42.135Z,16.70
2022-10-24T21:35:10.217Z,20.60
2022-10-24T21:37:37.507Z,14.70
2022-10-24T21:40:04.950Z,17.80
2022-10-24T21:42:34.601Z,14.90
2022-10-24T21:45:01.768Z,16.00
2022-10-24T21:47:28.859Z,15.80
2022-10-24T21:49:55.835Z,18.00
2022-10-24T21:52:22.853Z,15.90
2022-10-24T21:54:49.850Z,14.20
2022-10-24T21:57:16.824Z,16.80
2022-10-24T21:59:43.881Z,15.20
2022-10-24T22:02:11.221Z,15.80
2022-10-24T22:04:38.365Z,16.20
2022-10-24T22:07:06.017Z,17.50
2022-10-24T22:09:33.109Z,17.70
2022-10-24T22:12:00.686Z,15.50
2022-10-24T22:14:28.109Z,19.50
2022-10-24T22:16:55.527Z,16.70
2022-10-24T22:19:22.873Z,19.30
2022-10-24T22:21:51.632Z,15.40
2022-10-24T22:24:20.721Z,16.80
2022-10-24T22:26:48.805Z,15.40
2022-10-24T22:29:18.457Z,18.50
2022-10-24T22:31:46.595Z,16.70
2022-10-24T22:34:19.003Z,18.40
2022-10-24T22:36:58.139Z,15.50
2022-10-24T22:39:27.599Z,19.60
2022-10-24T22:41:57.316Z,17.80
2022-10-24T22:44:25.860Z,19.30
2022-10-24T22:47:16.121Z,17.90
2022-10-24T22:49:53.890Z,15.90
2022-10-24T22:52:21.713Z,19.80
2022-10-24T22:54:50.308Z,15.20
2022-10-24T22:57:19.710Z,20.60
2022-10-24T22:59:47.901Z,16.50
2022-10-24T23:02:29.438Z,16.40
2022-10-24T23:05:05.644Z,18.20
2022-10-24T23:07:42.081Z,19.40
2022-10-24T23:10:14.041Z,20.60
2022-10-24T23:12:44.108Z,15.80
2022-10-24T23:15:16.176Z,20.80
2022-10-24T23:17:45.917Z,16.70
2022-10-24T23:20:23.582Z,19.50
2022-10-24T23:22:58.392Z,16.50
2022-10-24T23:25:37.439Z,16.80
2022-10-24T23:28:13.443Z,15.90
2022-10-24T23:30:41.542Z,16.10
2022-10-24T23:33:11.229Z,17.70
2022-10-24T23:35:39.972Z,19.00
2022-10-24T23:38:08.159Z,16.80
2022-10-24T23:40:38.221Z,17.40
2022-10-24T23:43:07.262Z,16.30
2022-10-24T23:45:38.692Z,18.80
2022-10-24T23:48:19.433Z,16.50
2022-10-24T23:50:55.548Z,17.80
2022-10-24T23:53:49.821Z,20.20
2022-10-24T23:56:19.208Z,18.00
2022-10-24T23:58:46.243Z,14.80
